createdAt,value
2023-05-11T00:00:37.760Z,98761.22
2023-05-11T00:03:04.827Z,98742.13
2023-05-11T00:05:31.655Z,98751.22
2023-05-11T00:07:58.423Z,98760.50
2023-05-11T00:10:25.215Z,98756.22
2023-05-11T00:12:52.035Z,98751.00
2023-05-11T00:15:19.004Z,98758.91
2023-05-11T00:17:45.921Z,98757.25
2023-05-11T00:20:12.765Z,98735.72
2023-05-11T00:22:39.630Z,98746.78
2023-05-11T00:25:07.200Z,98755.88
2023-05-11T00:27:33.989Z,98750.78
2023-05-11T00:30:00.873Z,98755.97
2023-05-11T00:32:27.724Z,98743.22
2023-05-11T00:34:54.523Z,98751.78
2023-05-11T00:37:21.328Z,98744.94
2023-05-11T00:39:48.168Z,98748.34
2023-05-11T00:42:14.980Z,98748.75
2023-05-11T00:44:41.746Z,98730.09
2023-05-11T00:47:09.429Z,98714.13
2023-05-11T00:49:36.307Z,98719.41
2023-05-11T00:52:03.393Z,98748.66
2023-05-11T00:54:31.549Z,98747.91
2023-05-11T00:56:58.391Z,98738.00
2023-05-11T00:59:25.441Z,98742.59
2023-05-11T01:01:52.306Z,98744.66
2023-05-11T01:04:19.401Z,98740.00
2023-05-11T01:07:19.653Z,98747.00
2023-05-11T01:10:24.217Z,98740.19
2023-05-11T01:13:08.571Z,98743.75
2023-05-11T01:15:56.390Z,98748.00
2023-05-11T01:18:42.536Z,98738.63
2023-05-11T01:21:15.338Z,98735.28
2023-05-11T01:24:27.093Z,98739.56
2023-05-11T01:27:07.898Z,98738.81
2023-05-11T01:30:13.566Z,98736.22
2023-05-11T01:32:43.047Z,98740.50
2023-05-11T01:35:21.374Z,98698.94
2023-05-11T01:37:53.383Z,98739.66
2023-05-11T01:40:26.165Z,98742.16
2023-05-11T01:43:05.012Z,98747.47
2023-05-11T01:45:36.963Z,98739.00
2023-05-11T01:48:11.984Z,98739.66
2023-05-11T01:50:39.547Z,98742.00
2023-05-11T01:53:07.645Z,98728.47
2023-05-11T01:55:38.110Z,98744.41
2023-05-11T01:58:09.015Z,98740.22
2023-05-11T02:00:36.585Z,98744.41
2023-05-11T02:03:06.660Z,98722.63
2023-05-11T02:05:34.981Z,98741.72
2023-05-11T02:08:05.559Z,98750.16
2023-05-11T02:10:33.253Z,98737.81
2023-05-11T02:13:02.167Z,98743.28
2023-05-11T02:15:29.085Z,98743.56
2023-05-11T02:17:56.606Z,98750.25
2023-05-11T02:20:24.511Z,98734.31
2023-05-11T02:22:53.568Z,98742.56
2023-05-11T02:25:21.394Z,98740.88
2023-05-11T02:27:48.344Z,98746.06
2023-05-11T02:30:15.417Z,98746.06
2023-05-11T02:32:49.588Z,98740.97
2023-05-11T02:35:23.752Z,98737.56
2023-05-11T02:37:54.331Z,98727.63
2023-05-11T02:40:35.108Z,98740.88
2023-05-11T02:43:10.694Z,98743.56
2023-05-11T02:45:38.967Z,98736.59
2023-05-11T02:48:10.011Z,98742.56
2023-05-11T02:50:41.064Z,98747.75
2023-05-11T02:53:14.812Z,98732.50
2023-05-11T02:55:42.881Z,98738.25
2023-05-11T02:58:09.980Z,98741.06
2023-05-11T03:00:38.815Z,98735.00
2023-05-11T03:03:05.883Z,98714.16
2023-05-11T03:05:32.860Z,98727.50
2023-05-11T03:08:00.316Z,98730.84
2023-05-11T03:10:28.984Z,98729.38
2023-05-11T03:12:56.352Z,98723.06
2023-05-11T03:15:24.173Z,98723.59
2023-05-11T03:17:52.338Z,98723.59
2023-05-11T03:20:22.293Z,98721.09
2023-05-11T03:22:50.520Z,98729.00
2023-05-11T03:25:18.515Z,98720.81
2023-05-11T03:27:46.496Z,98723.44
2023-05-11T03:30:16.071Z,98716.56
2023-05-11T03:32:43.401Z,98729.16
2023-05-11T03:35:10.658Z,98725.84
2023-05-11T03:37:38.887Z,98718.75
2023-05-11T03:40:07.757Z,98714.50
2023-05-11T03:42:36.445Z,98718.06
2023-05-11T03:45:05.932Z,98720.66
2023-05-11T03:47:34.291Z,98719.91
2023-05-11T03:50:02.819Z,98713.97
2023-05-11T03:52:30.656Z,98722.41
2023-05-11T03:54:57.572Z,98710.41
2023-05-11T03:57:27.855Z,98713.56
2023-05-11T03:59:54.672Z,98713.56
2023-05-11T04:02:24.341Z,98713.50
2023-05-11T04:04:53.021Z,98710.06
2023-05-11T04:07:20.350Z,98714.22
2023-05-11T04:09:47.190Z,98705.06
2023-05-11T04:12:13.991Z,98708.38
2023-05-11T04:14:40.751Z,98693.16
2023-05-11T04:17:07.612Z,98699.00
2023-05-11T04:19:34.420Z,98711.06
2023-05-11T04:22:01.210Z,98713.41
2023-05-11T04:24:28.032Z,98716.00
2023-05-11T04:26:57.904Z,98709.09
2023-05-11T04:29:25.563Z,98710.06
2023-05-11T04:31:52.831Z,98711.91
2023-05-11T04:34:19.719Z,98697.81
2023-05-11T04:36:50.970Z,98715.47
2023-05-11T04:39:18.446Z,98716.16
2023-05-11T04:41:45.362Z,98714.59
2023-05-11T04:44:12.309Z,98713.75
2023-05-11T04:46:39.175Z,98697.91
2023-05-11T04:49:06.263Z,98713.56
2023-05-11T04:51:33.174Z,98715.25
2023-05-11T04:53:59.994Z,98710.53
2023-05-11T04:56:26.823Z,98721.38
2023-05-11T04:58:53.621Z,98719.63
2023-05-11T05:01:20.585Z,98720.66
2023-05-11T05:03:50.662Z,98702.28
2023-05-11T05:06:17.593Z,98720.72
2023-05-11T05:08:44.407Z,98723.97
2023-05-11T05:11:11.233Z,98722.31
2023-05-11T05:13:38.115Z,98726.66
2023-05-11T05:16:05.203Z,98728.16
2023-05-11T05:18:32.018Z,98726.31
2023-05-11T05:20:58.878Z,98721.94
2023-05-11T05:23:26.342Z,98732.97
2023-05-11T05:25:53.373Z,98730.34
2023-05-11T05:28:21.019Z,98726.94
2023-05-11T05:30:47.897Z,98731.19
2023-05-11T05:33:14.821Z,98738.16
2023-05-11T05:35:43.790Z,98736.31
2023-05-11T05:38:10.800Z,98718.59
2023-05-11T05:40:39.370Z,98743.84
2023-05-11T05:43:06.740Z,98736.75
2023-05-11T05:45:33.633Z,98745.28
2023-05-11T05:48:00.784Z,98725.72
2023-05-11T05:50:28.003Z,98740.84
2023-05-11T05:52:55.051Z,98743.22
2023-05-11T05:55:22.316Z,98743.06
2023-05-11T05:57:49.241Z,98744.53
2023-05-11T06:00:16.803Z,98728.47
2023-05-11T06:02:44.044Z,98748.50
2023-05-11T06:05:11.078Z,98729.09
2023-05-11T06:07:38.198Z,98750.91
2023-05-11T06:10:05.655Z,98749.16
2023-05-11T06:12:32.490Z,98739.31
2023-05-11T06:14:59.339Z,98747.28
2023-05-11T06:17:28.280Z,98748.41
2023-05-11T06:19:55.241Z,98744.78
2023-05-11T06:22:22.536Z,98750.63
2023-05-11T06:24:49.395Z,98743.19
2023-05-11T06:27:18.075Z,98748.72
2023-05-11T06:29:45.674Z,98753.13
2023-05-11T06:32:12.558Z,98732.25
2023-05-11T06:34:39.498Z,98753.03
2023-05-11T06:37:06.453Z,98745.13
2023-05-11T06:39:37.542Z,98758.03
2023-05-11T06:42:06.558Z,98742.06
2023-05-11T06:44:34.463Z,98747.28
2023-05-11T06:47:01.327Z,98737.06
2023-05-11T06:49:28.712Z,98753.88
2023-05-11T06:51:55.711Z,98750.44
2023-05-11T06:54:22.649Z,98742.34
2023-05-11T06:56:49.634Z,98739.69
2023-05-11T06:59:16.638Z,98735.94
2023-05-11T07:01:43.815Z,98750.97
2023-05-11T07:04:10.883Z,98750.13
2023-05-11T07:06:37.826Z,98759.53
2023-05-11T07:09:04.878Z,98754.59
2023-05-11T07:11:32.173Z,98755.22
2023-05-11T07:13:59.110Z,98768.09
2023-05-11T07:16:26.304Z,98754.97
2023-05-11T07:18:53.332Z,98754.88
2023-05-11T07:21:22.146Z,98738.78
2023-05-11T07:23:49.009Z,98759.88
2023-05-11T07:26:15.829Z,98759.66
2023-05-11T07:28:42.661Z,98761.34
2023-05-11T07:31:09.519Z,98757.81
2023-05-11T07:33:39.349Z,98751.31
2023-05-11T07:36:07.346Z,98757.00
2023-05-11T07:38:34.188Z,98763.59
2023-05-11T07:41:01.155Z,98754.88
2023-05-11T07:43:28.122Z,98760.72
2023-05-11T07:45:55.116Z,98748.34
2023-05-11T07:48:22.305Z,98758.97
2023-05-11T07:50:51.840Z,98768.69
2023-05-11T07:53:18.789Z,98766.94
2023-05-11T07:55:45.624Z,98757.47
2023-05-11T07:58:12.563Z,98760.88
2023-05-11T08:00:39.476Z,98755.22
2023-05-11T08:03:06.551Z,98763.59
2023-05-11T08:05:37.354Z,98751.16
2023-05-11T08:08:05.162Z,98761.09
2023-05-11T08:10:32.090Z,98747.50
2023-05-11T08:12:59.597Z,98742.47
2023-05-11T08:15:26.397Z,98764.56
2023-05-11T08:17:54.244Z,98760.31
2023-05-11T08:20:21.461Z,98754.72
2023-05-11T08:22:48.650Z,98752.50
2023-05-11T08:25:16.412Z,98752.69
2023-05-11T08:27:43.578Z,98756.66
2023-05-11T08:30:11.892Z,98766.97
2023-05-11T08:32:57.142Z,98759.34
2023-05-11T08:35:25.824Z,98753.13
2023-05-11T08:37:52.647Z,98756.06
2023-05-11T08:40:21.815Z,98764.13
2023-05-11T08:42:54.121Z,98746.38
2023-05-11T08:45:22.695Z,98768.09
2023-05-11T08:47:49.955Z,98754.81
2023-05-11T08:50:17.030Z,98751.84
2023-05-11T08:52:43.915Z,98770.72
2023-05-11T08:55:11.129Z,98764.03
2023-05-11T08:57:39.220Z,98772.03
2023-05-11T09:00:07.852Z,98762.84
2023-05-11T09:02:35.757Z,98769.13
2023-05-11T09:05:04.428Z,98767.66
2023-05-11T09:07:33.995Z,98749.25
2023-05-11T09:10:01.464Z,98725.31
2023-05-11T09:12:28.683Z,98769.13
2023-05-11T09:15:01.967Z,98772.03
2023-05-11T09:17:29.043Z,98762.84
2023-05-11T09:20:05.558Z,98763.59
2023-05-11T09:22:36.611Z,98762.38
2023-05-11T09:25:04.803Z,98765.59
2023-05-11T09:27:32.350Z,98750.34
2023-05-11T09:30:12.573Z,98760.34
2023-05-11T09:33:00.501Z,98766.09
2023-05-11T09:35:33.372Z,98759.31
2023-05-11T09:38:12.835Z,98754.56
2023-05-11T09:40:52.190Z,98759.44
2023-05-11T09:43:27.657Z,98737.44
2023-05-11T09:45:57.736Z,98755.28
2023-05-11T09:48:28.457Z,98762.06
2023-05-11T09:51:07.452Z,98762.91
2023-05-11T09:53:46.033Z,98759.16
2023-05-11T09:56:15.445Z,98745.50
2023-05-11T09:58:55.232Z,98754.78
2023-05-11T10:01:33.824Z,98758.88
2023-05-11T10:04:09.560Z,98748.72
2023-05-11T10:06:52.793Z,98752.47
2023-05-11T10:09:24.819Z,98756.09
2023-05-11T10:11:53.605Z,98752.09
2023-05-11T10:14:21.858Z,98759.44
2023-05-11T10:16:48.803Z,98750.22
2023-05-11T10:19:16.603Z,98763.59
2023-05-11T10:21:44.087Z,98754.88
2023-05-11T10:24:11.712Z,98758.84
2023-05-11T10:26:38.980Z,98753.34
2023-05-11T10:29:05.959Z,98753.97
2023-05-11T10:31:33.528Z,98755.94
2023-05-11T10:34:01.848Z,98745.72
2023-05-11T10:36:29.189Z,98748.97
2023-05-11T10:38:56.388Z,98744.47
2023-05-11T10:42:16.851Z,98746.13
2023-05-11T10:45:21.769Z,98741.66
2023-05-11T10:48:09.680Z,98744.47
2023-05-11T10:50:45.113Z,98746.44
2023-05-11T10:53:56.766Z,98739.25
2023-05-11T10:56:57.358Z,98735.28
2023-05-11T10:59:58.266Z,98737.78
2023-05-11T11:02:31.737Z,98742.78
2023-05-11T11:05:02.178Z,98734.78
2023-05-11T11:07:29.179Z,98740.06
2023-05-11T11:10:05.170Z,98722.31
2023-05-11T11:12:35.047Z,98729.19
2023-05-11T11:15:07.220Z,98734.03
2023-05-11T11:17:36.141Z,98717.44
2023-05-11T11:20:08.604Z,98731.53
2023-05-11T11:22:35.531Z,98734.03
2023-05-11T11:25:07.744Z,98737.38
2023-05-11T11:27:40.587Z,98726.22
2023-05-11T11:30:26.566Z,98724.06
2023-05-11T11:33:07.016Z,98725.59
2023-05-11T11:35:39.864Z,98735.09
2023-05-11T11:38:08.685Z,98720.59
2023-05-11T11:40:50.747Z,98730.31
2023-05-11T11:43:44.634Z,98720.97
2023-05-11T11:46:27.228Z,98716.56
2023-05-11T11:49:08.263Z,98726.69
2023-05-11T11:51:40.554Z,98724.09
2023-05-11T11:54:07.748Z,98717.50
2023-05-11T11:56:39.054Z,98736.91
2023-05-11T11:59:10.129Z,98726.28
2023-05-11T12:01:39.637Z,98724.31
2023-05-11T12:04:25.605Z,98721.19
2023-05-11T12:06:58.343Z,98713.75
2023-05-11T12:09:27.078Z,98715.53
2023-05-11T12:11:54.079Z,98707.53
2023-05-11T12:14:22.129Z,98714.09
2023-05-11T12:17:08.192Z,98720.84
2023-05-11T12:19:35.479Z,98726.81
2023-05-11T12:22:02.328Z,98719.72
2023-05-11T12:24:29.296Z,98718.88
2023-05-11T12:26:57.522Z,98714.41
2023-05-11T12:29:24.790Z,98715.03
2023-05-11T12:31:51.711Z,98719.31
2023-05-11T12:34:22.723Z,98708.69
2023-05-11T12:36:52.340Z,98718.06
2023-05-11T12:39:27.718Z,98708.78
2023-05-11T12:41:56.176Z,98711.69
2023-05-11T12:44:26.057Z,98697.03
2023-05-11T12:46:53.548Z,98700.53
2023-05-11T12:49:26.225Z,98687.72
2023-05-11T12:51:59.620Z,98696.50
2023-05-11T12:54:38.909Z,98696.59
2023-05-11T12:57:08.444Z,98699.00
2023-05-11T12:59:37.896Z,98696.38
2023-05-11T13:02:11.944Z,98691.78
2023-05-11T13:04:41.212Z,98685.56
2023-05-11T13:07:08.678Z,98678.69
2023-05-11T13:09:35.684Z,98672.00
2023-05-11T13:12:18.971Z,98683.69
2023-05-11T13:14:49.242Z,98678.03
2023-05-11T13:17:37.442Z,98676.41
2023-05-11T13:20:26.337Z,98674.53
2023-05-11T13:23:25.771Z,98678.56
2023-05-11T13:25:54.085Z,98653.34
2023-05-11T13:28:24.131Z,98669.72
2023-05-11T13:30:57.945Z,98659.41
2023-05-11T13:33:24.836Z,98665.75
2023-05-11T13:35:51.649Z,98652.94
2023-05-11T13:38:18.462Z,98659.69
2023-05-11T13:40:45.736Z,98626.47
2023-05-11T13:43:12.589Z,98641.88
2023-05-11T13:45:41.183Z,98648.88
2023-05-11T13:48:08.732Z,98652.31
2023-05-11T13:50:35.965Z,98648.34
2023-05-11T13:53:02.905Z,98656.69
2023-05-11T13:55:30.144Z,98649.72
2023-05-11T13:57:57.927Z,98652.31
2023-05-11T14:00:25.290Z,98626.31
2023-05-11T14:02:52.894Z,98627.16
2023-05-11T14:05:20.181Z,98641.22
2023-05-11T14:07:48.630Z,98640.09
2023-05-11T14:10:17.359Z,98619.88
2023-05-11T14:12:45.387Z,98627.06
2023-05-11T14:15:12.429Z,98620.09
2023-05-11T14:17:41.614Z,98617.38
2023-05-11T14:20:09.433Z,98627.47
2023-05-11T14:22:36.376Z,98626.03
2023-05-11T14:25:03.344Z,98626.66
2023-05-11T14:27:30.209Z,98618.50
2023-05-11T14:29:57.096Z,98620.09
2023-05-11T14:32:23.899Z,98614.66
2023-05-11T14:34:50.749Z,98615.59
2023-05-11T14:37:17.536Z,98618.50
2023-05-11T14:39:44.925Z,98621.97
2023-05-11T14:42:11.766Z,98604.66
2023-05-11T14:44:38.575Z,98607.16
2023-05-11T14:47:05.964Z,98600.25
2023-05-11T14:49:32.887Z,98602.13
2023-05-11T14:51:59.870Z,98593.91
2023-05-11T14:54:26.754Z,98604.09
2023-05-11T14:56:55.730Z,98588.97
2023-05-11T14:59:26.133Z,98596.88
2023-05-11T15:01:53.538Z,98600.63
2023-05-11T15:04:20.814Z,98600.13
2023-05-11T15:06:48.006Z,98593.66
2023-05-11T15:09:14.972Z,98600.22
2023-05-11T15:11:41.928Z,98597.16
2023-05-11T15:14:08.785Z,98600.63
2023-05-11T15:16:35.740Z,98590.84
2023-05-11T15:19:02.674Z,98601.47
2023-05-11T15:21:29.612Z,98598.00
2023-05-11T15:23:56.443Z,98588.97
2023-05-11T15:26:23.254Z,98599.88
2023-05-11T15:28:50.501Z,98581.91
2023-05-11T15:31:17.478Z,98600.78
2023-05-11T15:33:45.001Z,98595.53
2023-05-11T15:36:13.989Z,98595.63
2023-05-11T15:38:41.133Z,98593.53
2023-05-11T15:41:08.089Z,98599.88
2023-05-11T15:43:35.261Z,98606.13
2023-05-11T15:46:03.657Z,98589.81
2023-05-11T15:48:30.721Z,98612.09
2023-05-11T15:51:00.037Z,98611.06
2023-05-11T15:53:27.573Z,98600.16
2023-05-11T15:55:55.510Z,98601.63
2023-05-11T15:58:23.035Z,98610.19
2023-05-11T16:00:50.302Z,98604.56
2023-05-11T16:03:17.586Z,98608.00
2023-05-11T16:05:45.491Z,98600.28
2023-05-11T16:08:13.213Z,98596.63
2023-05-11T16:10:40.338Z,98603.84
2023-05-11T16:13:07.830Z,98597.06
2023-05-11T16:15:34.725Z,98608.34
2023-05-11T16:18:04.610Z,98607.50
2023-05-11T16:20:32.193Z,98604.59
2023-05-11T16:22:59.079Z,98611.47
2023-05-11T16:25:25.924Z,98594.09
2023-05-11T16:27:52.803Z,98609.59
2023-05-11T16:30:25.119Z,98608.78
2023-05-11T16:32:53.412Z,98600.75
2023-05-11T16:35:20.884Z,98593.66
2023-05-11T16:37:48.309Z,98608.78
2023-05-11T16:40:19.051Z,98600.13
2023-05-11T16:42:47.265Z,98598.94
2023-05-11T16:45:15.000Z,98598.94
2023-05-11T16:47:42.835Z,98590.53
2023-05-11T16:50:10.750Z,98592.00
2023-05-11T16:52:37.536Z,98604.59
2023-05-11T16:55:04.943Z,98601.72
2023-05-11T16:57:31.847Z,98601.81
2023-05-11T16:59:58.681Z,98593.06
2023-05-11T17:02:25.671Z,98609.44
2023-05-11T17:04:52.874Z,98614.41
2023-05-11T17:07:19.698Z,98612.88
2023-05-11T17:09:46.516Z,98611.31
2023-05-11T17:12:13.337Z,98610.25
2023-05-11T17:14:40.139Z,98609.03
2023-05-11T17:17:08.106Z,98604.63
2023-05-11T17:19:34.961Z,98607.34
2023-05-11T17:22:02.193Z,98603.09
2023-05-11T17:24:29.024Z,98611.94
2023-05-11T17:26:55.898Z,98608.50
2023-05-11T17:29:23.079Z,98612.03
2023-05-11T17:31:51.657Z,98611.13
2023-05-11T17:34:19.736Z,98614.25
2023-05-11T17:36:47.905Z,98606.09
2023-05-11T17:39:16.312Z,98618.50
2023-05-11T17:41:43.704Z,98619.13
2023-05-11T17:44:10.653Z,98617.34
2023-05-11T17:46:37.514Z,98615.88
2023-05-11T17:49:05.976Z,98614.25
2023-05-11T17:51:32.936Z,98617.53
2023-05-11T17:53:59.728Z,98596.97
2023-05-11T17:56:26.750Z,98596.75
2023-05-11T17:58:53.535Z,98621.09
2023-05-11T18:01:22.380Z,98622.75
2023-05-11T18:03:49.601Z,98616.00
2023-05-11T18:06:17.108Z,98614.25
2023-05-11T18:08:43.916Z,98616.13
2023-05-11T18:11:12.661Z,98613.22
2023-05-11T18:13:39.855Z,98630.56
2023-05-11T18:16:07.227Z,98631.53
2023-05-11T18:18:34.420Z,98627.28
2023-05-11T18:21:10.580Z,98637.81
2023-05-11T18:23:38.275Z,98638.63
2023-05-11T18:26:06.938Z,98622.81
2023-05-11T18:28:33.854Z,98637.19
2023-05-11T18:31:00.776Z,98633.13
2023-05-11T18:33:27.621Z,98631.13
2023-05-11T18:35:54.418Z,98630.28
2023-05-11T18:38:21.337Z,98641.66
2023-05-11T18:40:48.239Z,98643.75
2023-05-11T18:43:15.083Z,98623.31
2023-05-11T18:45:43.071Z,98645.94
2023-05-11T18:48:09.953Z,98647.81
2023-05-11T18:50:36.839Z,98654.91
2023-05-11T18:53:03.674Z,98643.66
2023-05-11T18:55:35.289Z,98648.34
2023-05-11T18:58:05.321Z,98650.84
2023-05-11T19:00:36.831Z,98654.38
2023-05-11T19:03:04.055Z,98655.22
2023-05-11T19:05:31.061Z,98660.66
2023-05-11T19:07:57.873Z,98651.97
2023-05-11T19:10:24.941Z,98664.09
2023-05-11T19:12:51.771Z,98647.44
2023-05-11T19:15:18.857Z,98653.16
2023-05-11T19:17:45.844Z,98661.69
2023-05-11T19:20:12.882Z,98657.53
2023-05-11T19:22:39.755Z,98654.28
2023-05-11T19:25:08.008Z,98666.19
2023-05-11T19:27:35.010Z,98661.06
2023-05-11T19:30:02.118Z,98662.00
2023-05-11T19:32:29.050Z,98671.78
2023-05-11T19:34:55.934Z,98666.59
2023-05-11T19:37:22.777Z,98655.53
2023-05-11T19:39:49.633Z,98660.75
2023-05-11T19:42:18.001Z,98651.78
2023-05-11T19:44:50.519Z,98648.44
2023-05-11T19:47:18.612Z,98663.06
2023-05-11T19:49:46.222Z,98667.75
2023-05-11T19:52:13.631Z,98665.75
2023-05-11T19:54:40.483Z,98672.63
2023-05-11T19:57:07.329Z,98665.97
2023-05-11T19:59:34.178Z,98670.97
2023-05-11T20:02:02.708Z,98669.50
2023-05-11T20:04:30.279Z,98668.75
2023-05-11T20:06:57.859Z,98675.66
2023-05-11T20:09:25.525Z,98676.69
2023-05-11T20:11:52.347Z,98667.72
2023-05-11T20:14:19.297Z,98675.31
2023-05-11T20:16:46.189Z,98672.00
2023-05-11T20:19:13.075Z,98662.72
2023-05-11T20:21:39.995Z,98662.63
2023-05-11T20:24:06.954Z,98664.47
2023-05-11T20:26:33.788Z,98641.97
2023-05-11T20:29:00.695Z,98659.06
2023-05-11T20:31:27.620Z,98661.66
2023-05-11T20:36:25.549Z,98672.09
2023-05-11T20:38:55.201Z,98671.34
2023-05-11T20:41:22.173Z,98677.50
2023-05-11T20:43:48.978Z,98669.88
2023-05-11T20:46:15.832Z,98636.69
2023-05-11T20:48:45.622Z,98668.31
2023-05-11T20:51:14.917Z,98674.28
2023-05-11T20:53:41.772Z,98661.34
2023-05-11T20:56:10.088Z,98669.97
2023-05-11T20:58:36.963Z,98662.38
2023-05-11T21:01:03.861Z,98650.97
2023-05-11T21:03:30.880Z,98663.38
2023-05-11T21:05:57.797Z,98667.13
2023-05-11T21:08:24.682Z,98657.94
2023-05-11T21:10:51.476Z,98672.22
2023-05-11T21:13:18.268Z,98661.06
2023-05-11T21:15:45.202Z,98653.97
2023-05-11T21:18:12.413Z,98660.84
2023-05-11T21:20:39.336Z,98660.13
2023-05-11T21:23:06.139Z,98660.84
2023-05-11T21:25:33.050Z,98657.72
2023-05-11T21:28:00.952Z,98665.97
2023-05-11T21:30:28.187Z,98655.44
2023-05-11T21:32:55.128Z,98668.56
2023-05-11T21:35:22.067Z,98659.16
2023-05-11T21:37:50.103Z,98662.94
2023-05-11T21:40:18.068Z,98663.63
2023-05-11T21:42:45.316Z,98664.78
2023-05-11T21:45:12.487Z,98668.94
2023-05-11T21:47:39.530Z,98666.66
2023-05-11T21:50:08.508Z,98667.41
2023-05-11T21:52:36.767Z,98670.84
2023-05-11T21:55:04.433Z,98656.44
2023-05-11T21:57:31.272Z,98675.72
2023-05-11T21:59:58.096Z,98670.53
2023-05-11T22:02:24.935Z,98671.13
2023-05-11T22:04:51.975Z,98676.53
2023-05-11T22:07:19.862Z,98659.09
2023-05-11T22:09:46.689Z,98667.34
2023-05-11T22:12:13.499Z,98668.81
2023-05-11T22:14:41.365Z,98674.13
2023-05-11T22:17:08.247Z,98667.97
2023-05-11T22:19:35.074Z,98667.88
2023-05-11T22:22:02.227Z,98666.97
2023-05-11T22:24:29.068Z,98665.38
2023-05-11T22:26:56.576Z,98668.94
2023-05-11T22:29:23.495Z,98676.44
2023-05-11T22:31:50.423Z,98663.34
2023-05-11T22:34:17.304Z,98668.50
2023-05-11T22:36:44.183Z,98659.09
2023-05-11T22:39:11.449Z,98671.00
2023-05-11T22:41:38.600Z,98670.25
2023-05-11T22:44:05.736Z,98654.38
2023-05-11T22:46:32.679Z,98674.50
2023-05-11T22:48:59.620Z,98678.50
2023-05-11T22:51:27.083Z,98676.19
2023-05-11T22:53:54.960Z,98675.25
2023-05-11T22:56:22.245Z,98682.22
2023-05-11T22:58:49.671Z,98683.16
2023-05-11T23:01:16.625Z,98674.31
2023-05-11T23:03:43.451Z,98679.72
2023-05-11T23:06:10.276Z,98655.63
2023-05-11T23:08:37.078Z,98673.06
2023-05-11T23:11:04.667Z,98669.50
2023-05-11T23:13:31.474Z,98671.16
2023-05-11T23:15:58.339Z,98666.91
2023-05-11T23:18:25.317Z,98670.25
2023-05-11T23:20:56.840Z,98672.84
2023-05-11T23:23:24.406Z,98668.03
2023-05-11T23:25:52.058Z,98669.50
2023-05-11T23:28:19.542Z,98677.31
2023-05-11T23:30:46.531Z,98663.97
2023-05-11T23:33:14.521Z,98672.94
2023-05-11T23:35:41.616Z,98666.38
2023-05-11T23:38:08.481Z,98666.38
2023-05-11T23:40:35.592Z,98663.13
2023-05-11T23:43:02.509Z,98652.28
2023-05-11T23:45:29.293Z,98661.66
2023-05-11T23:47:56.247Z,98667.69
2023-05-11T23:50:23.367Z,98646.72
2023-05-11T23:52:50.309Z,98651.91
2023-05-11T23:55:17.146Z,98655.09
2023-05-11T23:57:44.727Z,98653.09
